sensor_id;sensor_type;location;lat;lon;timestamp;P1;durP1;ratioP1;P2;durP2;ratioP2
55065;SDS011;40964;42.114;24.220;2023-06-04T00:01:57;17.30;;;7.80;;
55065;SDS011;40964;42.114;24.220;2023-06-04T00:04:25;10.05;;;5.93;;
55065;SDS011;40964;42.114;24.220;2023-06-04T00:06:51;11.07;;;7.47;;
55065;SDS011;40964;42.114;24.220;2023-06-04T00:09:16;11.93;;;7.15;;
55065;SDS011;40964;42.114;24.220;2023-06-04T00:11:42;9.07;;;6.53;;
55065;SDS011;40964;42.114;24.220;2023-06-04T00:14:07;9.77;;;7.40;;
55065;SDS011;40964;42.114;24.220;2023-06-04T00:16:33;10.25;;;6.82;;
55065;SDS011;40964;42.114;24.220;2023-06-04T00:19:00;9.82;;;6.63;;
55065;SDS011;40964;42.114;24.220;2023-06-04T00:21:27;12.13;;;7.30;;
55065;SDS011;40964;42.114;24.220;2023-06-04T00:23:52;11.10;;;7.07;;
55065;SDS011;40964;42.114;24.220;2023-06-04T00:26:18;13.20;;;7.70;;
55065;SDS011;40964;42.114;24.220;2023-06-04T00:28:43;11.52;;;7.57;;
55065;SDS011;40964;42.114;24.220;2023-06-04T00:31:09;11.70;;;7.53;;
55065;SDS011;40964;42.114;24.220;2023-06-04T00:33:35;11.02;;;6.97;;
55065;SDS011;40964;42.114;24.220;2023-06-04T00:36:01;11.63;;;7.68;;
55065;SDS011;40964;42.114;24.220;2023-06-04T00:38:27;8.18;;;6.78;;
55065;SDS011;40964;42.114;24.220;2023-06-04T00:40:52;9.07;;;7.35;;
55065;SDS011;40964;42.114;24.220;2023-06-04T00:43:18;11.73;;;7.45;;
55065;SDS011;40964;42.114;24.220;2023-06-04T00:45:44;10.52;;;7.10;;
55065;SDS011;40964;42.114;24.220;2023-06-04T00:48:09;9.63;;;7.45;;
55065;SDS011;40964;42.114;24.220;2023-06-04T00:50:35;9.57;;;7.22;;
55065;SDS011;40964;42.114;24.220;2023-06-04T00:53:03;9.95;;;7.70;;
55065;SDS011;40964;42.114;24.220;2023-06-04T00:55:30;10.70;;;7.57;;
55065;SDS011;40964;42.114;24.220;2023-06-04T00:57:56;9.82;;;7.70;;
55065;SDS011;40964;42.114;24.220;2023-06-04T01:00:22;11.13;;;7.90;;
55065;SDS011;40964;42.114;24.220;2023-06-04T01:02:49;9.13;;;7.30;;
55065;SDS011;40964;42.114;24.220;2023-06-04T01:05:25;11.02;;;8.10;;
55065;SDS011;40964;42.114;24.220;2023-06-04T01:07:55;9.52;;;7.60;;
55065;SDS011;40964;42.114;24.220;2023-06-04T01:10:22;9.88;;;7.47;;
55065;SDS011;40964;42.114;24.220;2023-06-04T01:12:47;11.80;;;7.88;;
55065;SDS011;40964;42.114;24.220;2023-06-04T01:15:13;10.38;;;7.70;;
55065;SDS011;40964;42.114;24.220;2023-06-04T01:17:40;10.70;;;7.53;;
55065;SDS011;40964;42.114;24.220;2023-06-04T01:20:18;11.98;;;7.50;;
55065;SDS011;40964;42.114;24.220;2023-06-04T01:25:33;14.48;;;7.47;;
55065;SDS011;40964;42.114;24.220;2023-06-04T01:28:10;11.50;;;7.05;;
55065;SDS011;40964;42.114;24.220;2023-06-04T01:30:38;10.55;;;7.25;;
55065;SDS011;40964;42.114;24.220;2023-06-04T01:33:07;11.93;;;8.05;;
55065;SDS011;40964;42.114;24.220;2023-06-04T01:35:35;9.85;;;7.30;;
55065;SDS011;40964;42.114;24.220;2023-06-04T01:38:05;11.38;;;8.00;;
55065;SDS011;40964;42.114;24.220;2023-06-04T01:40:30;11.60;;;8.10;;
55065;SDS011;40964;42.114;24.220;2023-06-04T01:42:57;11.82;;;8.10;;
55065;SDS011;40964;42.114;24.220;2023-06-04T01:45:23;11.77;;;8.40;;
55065;SDS011;40964;42.114;24.220;2023-06-04T01:47:50;9.98;;;7.70;;
55065;SDS011;40964;42.114;24.220;2023-06-04T01:50:16;16.88;;;8.90;;
55065;SDS011;40964;42.114;24.220;2023-06-04T01:52:42;12.02;;;8.52;;
55065;SDS011;40964;42.114;24.220;2023-06-04T01:55:08;11.80;;;8.80;;
55065;SDS011;40964;42.114;24.220;2023-06-04T01:57:37;12.82;;;8.20;;
55065;SDS011;40964;42.114;24.220;2023-06-04T02:00:03;13.75;;;8.75;;
55065;SDS011;40964;42.114;24.220;2023-06-04T02:02:33;12.48;;;8.60;;
55065;SDS011;40964;42.114;24.220;2023-06-04T02:04:58;13.68;;;9.02;;
55065;SDS011;40964;42.114;24.220;2023-06-04T02:07:24;11.18;;;7.85;;
55065;SDS011;40964;42.114;24.220;2023-06-04T02:09:51;12.85;;;8.50;;
55065;SDS011;40964;42.114;24.220;2023-06-04T02:12:16;15.35;;;8.63;;
55065;SDS011;40964;42.114;24.220;2023-06-04T02:14:42;15.45;;;8.57;;
55065;SDS011;40964;42.114;24.220;2023-06-04T02:17:10;11.50;;;8.40;;
55065;SDS011;40964;42.114;24.220;2023-06-04T02:19:41;11.68;;;8.45;;
55065;SDS011;40964;42.114;24.220;2023-06-04T02:22:12;13.88;;;8.40;;
55065;SDS011;40964;42.114;24.220;2023-06-04T02:24:38;14.98;;;8.60;;
55065;SDS011;40964;42.114;24.220;2023-06-04T02:27:07;10.20;;;8.20;;
55065;SDS011;40964;42.114;24.220;2023-06-04T02:29:36;12.55;;;8.60;;
55065;SDS011;40964;42.114;24.220;2023-06-04T02:32:02;14.32;;;8.32;;
55065;SDS011;40964;42.114;24.220;2023-06-04T02:34:28;16.42;;;8.35;;
55065;SDS011;40964;42.114;24.220;2023-06-04T02:36:54;11.88;;;7.80;;
55065;SDS011;40964;42.114;24.220;2023-06-04T02:39:19;12.23;;;7.93;;
55065;SDS011;40964;42.114;24.220;2023-06-04T02:41:45;12.32;;;7.57;;
55065;SDS011;40964;42.114;24.220;2023-06-04T02:44:11;16.92;;;7.90;;
55065;SDS011;40964;42.114;24.220;2023-06-04T02:46:37;10.95;;;7.72;;
55065;SDS011;40964;42.114;24.220;2023-06-04T02:49:03;12.25;;;8.57;;
55065;SDS011;40964;42.114;24.220;2023-06-04T02:51:28;10.77;;;8.20;;
55065;SDS011;40964;42.114;24.220;2023-06-04T02:53:54;13.10;;;7.80;;
55065;SDS011;40964;42.114;24.220;2023-06-04T02:56:20;11.85;;;8.00;;
55065;SDS011;40964;42.114;24.220;2023-06-04T02:58:51;16.33;;;7.82;;
55065;SDS011;40964;42.114;24.220;2023-06-04T03:01:21;15.35;;;8.27;;
55065;SDS011;40964;42.114;24.220;2023-06-04T03:03:48;12.00;;;8.23;;
55065;SDS011;40964;42.114;24.220;2023-06-04T03:06:14;10.20;;;8.23;;
55065;SDS011;40964;42.114;24.220;2023-06-04T03:08:41;12.55;;;7.47;;
55065;SDS011;40964;42.114;24.220;2023-06-04T03:11:07;15.15;;;8.20;;
55065;SDS011;40964;42.114;24.220;2023-06-04T03:13:32;12.80;;;7.55;;
55065;SDS011;40964;42.114;24.220;2023-06-04T03:15:58;13.13;;;7.57;;
55065;SDS011;40964;42.114;24.220;2023-06-04T03:18:26;14.73;;;10.18;;
55065;SDS011;40964;42.114;24.220;2023-06-04T03:20:55;11.18;;;7.30;;
55065;SDS011;40964;42.114;24.220;2023-06-04T03:23:20;9.15;;;6.75;;
55065;SDS011;40964;42.114;24.220;2023-06-04T03:25:46;9.57;;;6.65;;
55065;SDS011;40964;42.114;24.220;2023-06-04T03:28:12;11.88;;;6.82;;
55065;SDS011;40964;42.114;24.220;2023-06-04T03:30:37;10.50;;;7.47;;
55065;SDS011;40964;42.114;24.220;2023-06-04T03:33:04;11.45;;;6.70;;
55065;SDS011;40964;42.114;24.220;2023-06-04T03:35:29;11.30;;;7.45;;
55065;SDS011;40964;42.114;24.220;2023-06-04T03:37:54;8.82;;;7.18;;
55065;SDS011;40964;42.114;24.220;2023-06-04T03:40:20;10.93;;;7.03;;
55065;SDS011;40964;42.114;24.220;2023-06-04T03:42:45;10.43;;;7.53;;
55065;SDS011;40964;42.114;24.220;2023-06-04T03:45:11;10.63;;;6.75;;
55065;SDS011;40964;42.114;24.220;2023-06-04T03:47:37;11.80;;;6.72;;
55065;SDS011;40964;42.114;24.220;2023-06-04T03:50:04;8.73;;;6.38;;
55065;SDS011;40964;42.114;24.220;2023-06-04T03:52:29;8.85;;;6.75;;
55065;SDS011;40964;42.114;24.220;2023-06-04T03:54:55;10.55;;;6.65;;
55065;SDS011;40964;42.114;24.220;2023-06-04T03:57:21;9.98;;;6.38;;
55065;SDS011;40964;42.114;24.220;2023-06-04T03:59:46;10.70;;;6.82;;
55065;SDS011;40964;42.114;24.220;2023-06-04T04:02:12;8.80;;;5.97;;
55065;SDS011;40964;42.114;24.220;2023-06-04T04:04:37;8.50;;;6.43;;
55065;SDS011;40964;42.114;24.220;2023-06-04T04:07:03;10.98;;;5.75;;
55065;SDS011;40964;42.114;24.220;2023-06-04T04:09:28;9.00;;;6.50;;
55065;SDS011;40964;42.114;24.220;2023-06-04T04:11:54;9.70;;;6.00;;
55065;SDS011;40964;42.114;24.220;2023-06-04T04:14:19;9.55;;;6.35;;
55065;SDS011;40964;42.114;24.220;2023-06-04T04:16:44;10.77;;;6.25;;
55065;SDS011;40964;42.114;24.220;2023-06-04T04:19:10;11.23;;;6.53;;
55065;SDS011;40964;42.114;24.220;2023-06-04T04:21:36;12.25;;;6.22;;
55065;SDS011;40964;42.114;24.220;2023-06-04T04:24:03;9.15;;;6.40;;
55065;SDS011;40964;42.114;24.220;2023-06-04T04:26:29;9.82;;;6.30;;
55065;SDS011;40964;42.114;24.220;2023-06-04T04:28:55;10.07;;;6.00;;
55065;SDS011;40964;42.114;24.220;2023-06-04T04:31:25;8.45;;;6.50;;
55065;SDS011;40964;42.114;24.220;2023-06-04T04:33:55;7.75;;;6.22;;
55065;SDS011;40964;42.114;24.220;2023-06-04T04:36:21;8.35;;;6.63;;
55065;SDS011;40964;42.114;24.220;2023-06-04T04:38:48;8.15;;;6.30;;
55065;SDS011;40964;42.114;24.220;2023-06-04T04:41:19;9.25;;;6.05;;
55065;SDS011;40964;42.114;24.220;2023-06-04T04:43:52;16.48;;;6.32;;
55065;SDS011;40964;42.114;24.220;2023-06-04T04:46:18;12.52;;;5.70;;
55065;SDS011;40964;42.114;24.220;2023-06-04T04:48:43;11.63;;;6.70;;
55065;SDS011;40964;42.114;24.220;2023-06-04T04:51:09;6.35;;;5.45;;
55065;SDS011;40964;42.114;24.220;2023-06-04T04:53:34;9.65;;;5.95;;
55065;SDS011;40964;42.114;24.220;2023-06-04T04:56:00;8.70;;;5.65;;
55065;SDS011;40964;42.114;24.220;2023-06-04T04:58:25;10.68;;;6.03;;
55065;SDS011;40964;42.114;24.220;2023-06-04T05:00:51;7.07;;;5.25;;
55065;SDS011;40964;42.114;24.220;2023-06-04T05:03:16;8.40;;;5.75;;
55065;SDS011;40964;42.114;24.220;2023-06-04T05:05:42;9.73;;;5.75;;
55065;SDS011;40964;42.114;24.220;2023-06-04T05:08:08;8.52;;;5.93;;
55065;SDS011;40964;42.114;24.220;2023-06-04T05:10:34;8.45;;;5.43;;
55065;SDS011;40964;42.114;24.220;2023-06-04T05:13:01;6.70;;;5.20;;
55065;SDS011;40964;42.114;24.220;2023-06-04T05:15:26;9.50;;;5.93;;
55065;SDS011;40964;42.114;24.220;2023-06-04T05:17:52;11.27;;;7.13;;
55065;SDS011;40964;42.114;24.220;2023-06-04T05:20:21;7.90;;;6.03;;
55065;SDS011;40964;42.114;24.220;2023-06-04T05:22:47;9.57;;;6.00;;
55065;SDS011;40964;42.114;24.220;2023-06-04T05:25:13;9.23;;;6.00;;
55065;SDS011;40964;42.114;24.220;2023-06-04T05:27:39;9.10;;;5.50;;
55065;SDS011;40964;42.114;24.220;2023-06-04T05:30:05;8.80;;;6.03;;
55065;SDS011;40964;42.114;24.220;2023-06-04T05:32:31;9.38;;;5.90;;
55065;SDS011;40964;42.114;24.220;2023-06-04T05:34:57;10.88;;;6.10;;
55065;SDS011;40964;42.114;24.220;2023-06-04T05:37:24;9.25;;;6.38;;
55065;SDS011;40964;42.114;24.220;2023-06-04T05:39:55;8.80;;;6.55;;
55065;SDS011;40964;42.114;24.220;2023-06-04T05:42:22;10.75;;;5.82;;
55065;SDS011;40964;42.114;24.220;2023-06-04T05:44:48;8.48;;;5.85;;
55065;SDS011;40964;42.114;24.220;2023-06-04T05:47:15;10.10;;;5.93;;
55065;SDS011;40964;42.114;24.220;2023-06-04T05:49:44;6.43;;;5.72;;
55065;SDS011;40964;42.114;24.220;2023-06-04T05:52:09;8.60;;;5.95;;
55065;SDS011;40964;42.114;24.220;2023-06-04T05:54:35;8.38;;;6.00;;
55065;SDS011;40964;42.114;24.220;2023-06-04T05:57:03;8.73;;;5.63;;
55065;SDS011;40964;42.114;24.220;2023-06-04T05:59:29;11.57;;;6.10;;
55065;SDS011;40964;42.114;24.220;2023-06-04T06:01:55;7.88;;;5.63;;
55065;SDS011;40964;42.114;24.220;2023-06-04T06:04:20;8.68;;;5.82;;
55065;SDS011;40964;42.114;24.220;2023-06-04T06:06:46;7.50;;;5.57;;
55065;SDS011;40964;42.114;24.220;2023-06-04T06:09:13;10.10;;;5.53;;
55065;SDS011;40964;42.114;24.220;2023-06-04T06:11:40;6.72;;;5.00;;
55065;SDS011;40964;42.114;24.220;2023-06-04T06:14:05;7.65;;;4.80;;
55065;SDS011;40964;42.114;24.220;2023-06-04T06:16:31;8.50;;;4.72;;
55065;SDS011;40964;42.114;24.220;2023-06-04T06:18:57;6.57;;;5.15;;
55065;SDS011;40964;42.114;24.220;2023-06-04T06:21:23;7.45;;;4.72;;
55065;SDS011;40964;42.114;24.220;2023-06-04T06:23:49;6.72;;;5.30;;
55065;SDS011;40964;42.114;24.220;2023-06-04T06:26:14;7.22;;;4.45;;
55065;SDS011;40964;42.114;24.220;2023-06-04T06:28:41;9.18;;;4.70;;
55065;SDS011;40964;42.114;24.220;2023-06-04T06:31:06;10.90;;;5.57;;
55065;SDS011;40964;42.114;24.220;2023-06-04T06:33:32;8.18;;;5.30;;
55065;SDS011;40964;42.114;24.220;2023-06-04T06:35:57;9.02;;;5.10;;
55065;SDS011;40964;42.114;24.220;2023-06-04T06:38:26;9.82;;;5.60;;
55065;SDS011;40964;42.114;24.220;2023-06-04T06:40:52;8.55;;;5.15;;
55065;SDS011;40964;42.114;24.220;2023-06-04T06:43:17;8.15;;;5.22;;
55065;SDS011;40964;42.114;24.220;2023-06-04T06:45:44;11.05;;;5.20;;
55065;SDS011;40964;42.114;24.220;2023-06-04T06:48:10;6.35;;;4.82;;
55065;SDS011;40964;42.114;24.220;2023-06-04T06:50:36;9.65;;;5.35;;
55065;SDS011;40964;42.114;24.220;2023-06-04T06:53:02;9.45;;;5.18;;
55065;SDS011;40964;42.114;24.220;2023-06-04T06:55:28;7.85;;;5.20;;
55065;SDS011;40964;42.114;24.220;2023-06-04T06:57:53;8.95;;;5.40;;
55065;SDS011;40964;42.114;24.220;2023-06-04T07:00:18;7.63;;;5.60;;
55065;SDS011;40964;42.114;24.220;2023-06-04T07:02:44;10.52;;;5.60;;
55065;SDS011;40964;42.114;24.220;2023-06-04T07:05:10;7.55;;;5.60;;
55065;SDS011;40964;42.114;24.220;2023-06-04T07:07:36;8.35;;;5.43;;
55065;SDS011;40964;42.114;24.220;2023-06-04T07:10:02;14.65;;;5.90;;
55065;SDS011;40964;42.114;24.220;2023-06-04T07:12:29;10.40;;;6.47;;
55065;SDS011;40964;42.114;24.220;2023-06-04T07:14:55;9.27;;;6.38;;
55065;SDS011;40964;42.114;24.220;2023-06-04T07:17:21;8.10;;;5.90;;
55065;SDS011;40964;42.114;24.220;2023-06-04T07:19:47;13.48;;;6.90;;
55065;SDS011;40964;42.114;24.220;2023-06-04T07:22:12;8.18;;;6.63;;
55065;SDS011;40964;42.114;24.220;2023-06-04T07:24:40;10.85;;;7.60;;
55065;SDS011;40964;42.114;24.220;2023-06-04T07:27:13;9.77;;;7.07;;
55065;SDS011;40964;42.114;24.220;2023-06-04T07:29:39;15.50;;;7.13;;
55065;SDS011;40964;42.114;24.220;2023-06-04T07:32:05;11.07;;;7.10;;
55065;SDS011;40964;42.114;24.220;2023-06-04T07:34:31;10.32;;;6.63;;
55065;SDS011;40964;42.114;24.220;2023-06-04T07:36:57;8.35;;;6.88;;
55065;SDS011;40964;42.114;24.220;2023-06-04T07:39:23;11.10;;;7.32;;
55065;SDS011;40964;42.114;24.220;2023-06-04T07:41:48;12.35;;;7.50;;
55065;SDS011;40964;42.114;24.220;2023-06-04T07:44:14;11.48;;;7.50;;
55065;SDS011;40964;42.114;24.220;2023-06-04T07:46:39;9.45;;;7.63;;
55065;SDS011;40964;42.114;24.220;2023-06-04T07:49:04;11.57;;;6.93;;
55065;SDS011;40964;42.114;24.220;2023-06-04T07:51:30;11.23;;;6.63;;
55065;SDS011;40964;42.114;24.220;2023-06-04T07:53:56;10.05;;;6.55;;
55065;SDS011;40964;42.114;24.220;2023-06-04T07:56:22;10.25;;;6.80;;
55065;SDS011;40964;42.114;24.220;2023-06-04T07:58:47;10.63;;;7.15;;
55065;SDS011;40964;42.114;24.220;2023-06-04T08:01:13;10.85;;;7.10;;
55065;SDS011;40964;42.114;24.220;2023-06-04T08:03:38;11.63;;;7.30;;
55065;SDS011;40964;42.114;24.220;2023-06-04T08:06:05;9.27;;;7.00;;
55065;SDS011;40964;42.114;24.220;2023-06-04T08:08:31;8.68;;;7.18;;
55065;SDS011;40964;42.114;24.220;2023-06-04T08:10:59;9.40;;;7.00;;
55065;SDS011;40964;42.114;24.220;2023-06-04T08:13:25;9.82;;;6.80;;
55065;SDS011;40964;42.114;24.220;2023-06-04T08:15:50;9.70;;;7.38;;
55065;SDS011;40964;42.114;24.220;2023-06-04T08:18:15;15.30;;;8.00;;
55065;SDS011;40964;42.114;24.220;2023-06-04T08:20:41;15.25;;;8.73;;
55065;SDS011;40964;42.114;24.220;2023-06-04T08:23:07;11.00;;;8.27;;
55065;SDS011;40964;42.114;24.220;2023-06-04T08:25:32;13.73;;;7.95;;
55065;SDS011;40964;42.114;24.220;2023-06-04T08:27:58;10.45;;;7.53;;
55065;SDS011;40964;42.114;24.220;2023-06-04T08:30:24;10.32;;;7.75;;
55065;SDS011;40964;42.114;24.220;2023-06-04T08:32:50;10.13;;;7.95;;
55065;SDS011;40964;42.114;24.220;2023-06-04T08:35:16;14.10;;;7.85;;
55065;SDS011;40964;42.114;24.220;2023-06-04T08:37:41;12.35;;;7.80;;
55065;SDS011;40964;42.114;24.220;2023-06-04T08:40:07;10.38;;;8.48;;
55065;SDS011;40964;42.114;24.220;2023-06-04T08:42:38;10.90;;;8.35;;
55065;SDS011;40964;42.114;24.220;2023-06-04T08:45:09;13.73;;;9.40;;
55065;SDS011;40964;42.114;24.220;2023-06-04T08:50:19;16.02;;;9.18;;
55065;SDS011;40964;42.114;24.220;2023-06-04T08:52:46;13.43;;;9.30;;
55065;SDS011;40964;42.114;24.220;2023-06-04T08:55:13;14.45;;;9.38;;
55065;SDS011;40964;42.114;24.220;2023-06-04T08:57:39;12.15;;;9.13;;
55065;SDS011;40964;42.114;24.220;2023-06-04T09:00:06;16.17;;;10.07;;
55065;SDS011;40964;42.114;24.220;2023-06-04T09:02:36;12.93;;;10.32;;
55065;SDS011;40964;42.114;24.220;2023-06-04T09:05:05;13.30;;;9.88;;
55065;SDS011;40964;42.114;24.220;2023-06-04T09:07:38;17.05;;;10.60;;
55065;SDS011;40964;42.114;24.220;2023-06-04T09:10:06;14.52;;;9.95;;
55065;SDS011;40964;42.114;24.220;2023-06-04T09:12:35;14.70;;;9.35;;
55065;SDS011;40964;42.114;24.220;2023-06-04T09:15:02;15.25;;;10.48;;
55065;SDS011;40964;42.114;24.220;2023-06-04T09:17:28;13.43;;;9.50;;
55065;SDS011;40964;42.114;24.220;2023-06-04T09:19:54;17.98;;;9.45;;
55065;SDS011;40964;42.114;24.220;2023-06-04T09:22:20;14.73;;;9.75;;
55065;SDS011;40964;42.114;24.220;2023-06-04T09:24:56;13.25;;;10.38;;
55065;SDS011;40964;42.114;24.220;2023-06-04T09:27:21;13.00;;;9.82;;
55065;SDS011;40964;42.114;24.220;2023-06-04T09:29:50;17.10;;;9.88;;
55065;SDS011;40964;42.114;24.220;2023-06-04T09:32:23;11.90;;;8.90;;
55065;SDS011;40964;42.114;24.220;2023-06-04T09:34:49;11.80;;;9.93;;
55065;SDS011;40964;42.114;24.220;2023-06-04T09:37:17;11.82;;;9.73;;
55065;SDS011;40964;42.114;24.220;2023-06-04T09:39:43;14.43;;;10.30;;
55065;SDS011;40964;42.114;24.220;2023-06-04T09:42:18;14.70;;;11.10;;
55065;SDS011;40964;42.114;24.220;2023-06-04T09:44:44;16.13;;;10.75;;
55065;SDS011;40964;42.114;24.220;2023-06-04T09:47:10;18.80;;;10.32;;
55065;SDS011;40964;42.114;24.220;2023-06-04T09:49:43;17.60;;;10.02;;
55065;SDS011;40964;42.114;24.220;2023-06-04T09:52:09;13.93;;;10.07;;
55065;SDS011;40964;42.114;24.220;2023-06-04T09:54:36;14.75;;;10.80;;
55065;SDS011;40964;42.114;24.220;2023-06-04T09:57:03;15.63;;;11.07;;
55065;SDS011;40964;42.114;24.220;2023-06-04T09:59:31;16.00;;;11.07;;
55065;SDS011;40964;42.114;24.220;2023-06-04T10:02:04;15.10;;;11.30;;
55065;SDS011;40964;42.114;24.220;2023-06-04T10:04:33;15.20;;;11.43;;
55065;SDS011;40964;42.114;24.220;2023-06-04T10:07:03;20.40;;;11.75;;
55065;SDS011;40964;42.114;24.220;2023-06-04T10:09:31;16.48;;;11.30;;
55065;SDS011;40964;42.114;24.220;2023-06-04T10:11:58;17.08;;;11.65;;
55065;SDS011;40964;42.114;24.220;2023-06-04T10:14:25;18.10;;;10.85;;
55065;SDS011;40964;42.114;24.220;2023-06-04T10:16:57;17.52;;;10.40;;
55065;SDS011;40964;42.114;24.220;2023-06-04T10:19:23;15.88;;;10.95;;
55065;SDS011;40964;42.114;24.220;2023-06-04T10:21:49;16.30;;;11.40;;
55065;SDS011;40964;42.114;24.220;2023-06-04T10:24:15;15.38;;;10.35;;
55065;SDS011;40964;42.114;24.220;2023-06-04T10:26:41;14.88;;;11.00;;
55065;SDS011;40964;42.114;24.220;2023-06-04T10:29:07;14.38;;;10.52;;
55065;SDS011;40964;42.114;24.220;2023-06-04T10:31:33;14.98;;;10.10;;
55065;SDS011;40964;42.114;24.220;2023-06-04T10:33:59;16.65;;;10.35;;
55065;SDS011;40964;42.114;24.220;2023-06-04T10:36:25;18.70;;;10.73;;
55065;SDS011;40964;42.114;24.220;2023-06-04T10:38:54;15.10;;;9.48;;
55065;SDS011;40964;42.114;24.220;2023-06-04T10:41:20;14.90;;;10.65;;
55065;SDS011;40964;42.114;24.220;2023-06-04T10:43:51;13.85;;;10.23;;
55065;SDS011;40964;42.114;24.220;2023-06-04T10:46:25;11.73;;;10.05;;
55065;SDS011;40964;42.114;24.220;2023-06-04T10:48:51;14.27;;;9.90;;
55065;SDS011;40964;42.114;24.220;2023-06-04T10:51:30;13.95;;;10.38;;
55065;SDS011;40964;42.114;24.220;2023-06-04T10:54:00;13.55;;;9.48;;
55065;SDS011;40964;42.114;24.220;2023-06-04T10:56:30;12.05;;;9.30;;
55065;SDS011;40964;42.114;24.220;2023-06-04T10:59:13;11.95;;;9.20;;
55065;SDS011;40964;42.114;24.220;2023-06-04T11:01:40;11.38;;;9.02;;
55065;SDS011;40964;42.114;24.220;2023-06-04T11:04:05;15.65;;;9.00;;
55065;SDS011;40964;42.114;24.220;2023-06-04T11:06:31;13.38;;;8.85;;
55065;SDS011;40964;42.114;24.220;2023-06-04T11:09:04;11.93;;;8.43;;
55065;SDS011;40964;42.114;24.220;2023-06-04T11:11:31;12.93;;;8.77;;
55065;SDS011;40964;42.114;24.220;2023-06-04T11:14:09;18.80;;;10.38;;
55065;SDS011;40964;42.114;24.220;2023-06-04T11:16:38;11.25;;;9.13;;
55065;SDS011;40964;42.114;24.220;2023-06-04T11:19:03;13.98;;;8.68;;
55065;SDS011;40964;42.114;24.220;2023-06-04T11:21:29;12.43;;;8.75;;
55065;SDS011;40964;42.114;24.220;2023-06-04T11:23:57;13.55;;;9.25;;
55065;SDS011;40964;42.114;24.220;2023-06-04T11:26:36;12.32;;;8.45;;
55065;SDS011;40964;42.114;24.220;2023-06-04T11:29:05;10.38;;;8.15;;
55065;SDS011;40964;42.114;24.220;2023-06-04T11:31:45;9.23;;;8.20;;
55065;SDS011;40964;42.114;24.220;2023-06-04T11:37:07;14.85;;;7.85;;
55065;SDS011;40964;42.114;24.220;2023-06-04T11:39:35;9.13;;;6.88;;
55065;SDS011;40964;42.114;24.220;2023-06-04T11:42:03;8.00;;;7.18;;
55065;SDS011;40964;42.114;24.220;2023-06-04T11:44:30;9.10;;;7.10;;
55065;SDS011;40964;42.114;24.220;2023-06-04T11:46:56;11.07;;;8.07;;
55065;SDS011;40964;42.114;24.220;2023-06-04T11:49:22;10.93;;;7.43;;
55065;SDS011;40964;42.114;24.220;2023-06-04T11:54:14;9.57;;;8.10;;
55065;SDS011;40964;42.114;24.220;2023-06-04T11:56:41;10.18;;;7.90;;
55065;SDS011;40964;42.114;24.220;2023-06-04T11:59:12;9.23;;;7.70;;
55065;SDS011;40964;42.114;24.220;2023-06-04T12:01:42;8.23;;;7.40;;
55065;SDS011;40964;42.114;24.220;2023-06-04T12:04:15;11.65;;;7.90;;
55065;SDS011;40964;42.114;24.220;2023-06-04T12:06:54;9.88;;;7.68;;
55065;SDS011;40964;42.114;24.220;2023-06-04T12:12:05;11.77;;;8.45;;
55065;SDS011;40964;42.114;24.220;2023-06-04T12:14:32;9.40;;;7.45;;
55065;SDS011;40964;42.114;24.220;2023-06-04T12:16:59;11.27;;;8.23;;
55065;SDS011;40964;42.114;24.220;2023-06-04T12:19:26;13.10;;;7.95;;
55065;SDS011;40964;42.114;24.220;2023-06-04T12:22:03;9.98;;;7.35;;
55065;SDS011;40964;42.114;24.220;2023-06-04T12:24:30;9.68;;;7.00;;
55065;SDS011;40964;42.114;24.220;2023-06-04T12:27:04;8.00;;;7.10;;
55065;SDS011;40964;42.114;24.220;2023-06-04T12:29:31;7.65;;;6.85;;
55065;SDS011;40964;42.114;24.220;2023-06-04T12:32:07;7.93;;;6.13;;
55065;SDS011;40964;42.114;24.220;2023-06-04T12:34:36;14.23;;;7.25;;
55065;SDS011;40964;42.114;24.220;2023-06-04T12:37:02;8.10;;;6.03;;
55065;SDS011;40964;42.114;24.220;2023-06-04T12:39:28;7.35;;;6.65;;
55065;SDS011;40964;42.114;24.220;2023-06-04T12:41:55;12.60;;;6.82;;
55065;SDS011;40964;42.114;24.220;2023-06-04T12:44:20;11.48;;;6.72;;
55065;SDS011;40964;42.114;24.220;2023-06-04T12:46:46;10.18;;;7.30;;
55065;SDS011;40964;42.114;24.220;2023-06-04T12:49:12;12.82;;;7.80;;
55065;SDS011;40964;42.114;24.220;2023-06-04T12:51:37;8.85;;;7.63;;
55065;SDS011;40964;42.114;24.220;2023-06-04T12:54:04;11.38;;;7.95;;
55065;SDS011;40964;42.114;24.220;2023-06-04T12:56:29;12.45;;;7.90;;
55065;SDS011;40964;42.114;24.220;2023-06-04T12:58:55;10.43;;;8.38;;
55065;SDS011;40964;42.114;24.220;2023-06-04T13:01:21;13.38;;;10.20;;
55065;SDS011;40964;42.114;24.220;2023-06-04T13:03:46;12.23;;;8.40;;
55065;SDS011;40964;42.114;24.220;2023-06-04T13:06:11;14.63;;;8.02;;
55065;SDS011;40964;42.114;24.220;2023-06-04T13:08:37;10.25;;;7.15;;
55065;SDS011;40964;42.114;24.220;2023-06-04T13:11:03;11.15;;;7.00;;
55065;SDS011;40964;42.114;24.220;2023-06-04T13:13:29;9.23;;;7.78;;
55065;SDS011;40964;42.114;24.220;2023-06-04T13:15:54;8.48;;;6.90;;
55065;SDS011;40964;42.114;24.220;2023-06-04T13:18:20;11.18;;;7.40;;
55065;SDS011;40964;42.114;24.220;2023-06-04T13:20:46;10.18;;;7.82;;
55065;SDS011;40964;42.114;24.220;2023-06-04T13:23:15;9.75;;;8.05;;
55065;SDS011;40964;42.114;24.220;2023-06-04T13:25:41;10.02;;;8.75;;
55065;SDS011;40964;42.114;24.220;2023-06-04T13:28:06;9.95;;;8.48;;
55065;SDS011;40964;42.114;24.220;2023-06-04T13:30:34;14.02;;;8.88;;
55065;SDS011;40964;42.114;24.220;2023-06-04T13:33:01;10.35;;;9.07;;
55065;SDS011;40964;42.114;24.220;2023-06-04T13:35:27;9.45;;;8.45;;
55065;SDS011;40964;42.114;24.220;2023-06-04T13:37:52;13.45;;;8.45;;
55065;SDS011;40964;42.114;24.220;2023-06-04T13:40:18;11.23;;;8.20;;
55065;SDS011;40964;42.114;24.220;2023-06-04T13:42:43;10.75;;;7.25;;
55065;SDS011;40964;42.114;24.220;2023-06-04T13:45:09;9.57;;;6.10;;
55065;SDS011;40964;42.114;24.220;2023-06-04T13:47:34;9.27;;;6.30;;
55065;SDS011;40964;42.114;24.220;2023-06-04T13:50:00;13.75;;;6.47;;
55065;SDS011;40964;42.114;24.220;2023-06-04T13:52:26;10.82;;;7.50;;
55065;SDS011;40964;42.114;24.220;2023-06-04T13:54:53;8.13;;;6.80;;
55065;SDS011;40964;42.114;24.220;2023-06-04T13:57:19;7.65;;;6.90;;
55065;SDS011;40964;42.114;24.220;2023-06-04T13:59:44;8.02;;;6.95;;
55065;SDS011;40964;42.114;24.220;2023-06-04T14:02:10;8.05;;;6.50;;
55065;SDS011;40964;42.114;24.220;2023-06-04T14:04:35;10.10;;;7.07;;
55065;SDS011;40964;42.114;24.220;2023-06-04T14:07:01;12.48;;;7.60;;
55065;SDS011;40964;42.114;24.220;2023-06-04T14:09:26;10.02;;;7.30;;
55065;SDS011;40964;42.114;24.220;2023-06-04T14:11:51;8.82;;;7.55;;
55065;SDS011;40964;42.114;24.220;2023-06-04T14:14:17;10.20;;;6.93;;
55065;SDS011;40964;42.114;24.220;2023-06-04T14:16:44;9.18;;;7.07;;
55065;SDS011;40964;42.114;24.220;2023-06-04T14:19:10;9.68;;;6.57;;
55065;SDS011;40964;42.114;24.220;2023-06-04T14:21:35;7.88;;;6.30;;
55065;SDS011;40964;42.114;24.220;2023-06-04T14:24:01;6.75;;;6.05;;
55065;SDS011;40964;42.114;24.220;2023-06-04T14:26:26;7.40;;;6.60;;
55065;SDS011;40964;42.114;24.220;2023-06-04T14:28:52;8.50;;;6.30;;
55065;SDS011;40964;42.114;24.220;2023-06-04T14:31:17;7.50;;;5.60;;
55065;SDS011;40964;42.114;24.220;2023-06-04T14:33:43;6.30;;;5.53;;
55065;SDS011;40964;42.114;24.220;2023-06-04T14:36:08;6.38;;;5.78;;
55065;SDS011;40964;42.114;24.220;2023-06-04T14:38:33;9.95;;;5.70;;